Univ of Nebraska E Campus, Nebraska
Current Conditions -  °F | °C
As of 10:54 PM on Saturday 25 Oct 2014 (Local Time) from KLNK Reporting Station
Clear Clear  
Wind Chill: 58°   Ceiling: Unl
Heat Index: 58°   Visibility: 10mi
Dew Point: 43°   Wind: 6mph
Humidity: 58%   Direction: 90°E
Pressure: 30.01"   Gusts: NA
Location:  40.8311°N, 96.6637°W
Report Text: KLNK 260354Z 09005KT 10SM CLR 14/06 A3001 RMK AO2 SLP157 T01440061
Loading
Personal Weather Stations






























Interactive Weather Map
Tropical Storm Tracking
New forecast layout! Learn more

10-Day Weather Forecast

Advertisements
Track Severe Weather on mobile